Time;durP1;ratioP1;P1;durP2;ratioP2;P2;SDS_P1;SDS_P2;PMS_P1;PMS_P2;Temp;Humidity;BMP_temperature;BMP_pressure;BME280_temperature;BME280_humidity;BME280_pressure;Samples;Min_cycle;Max_cycle;Signal;HPM_P1;HPM_P2
2024/03/16 00:02:15;;;;;;;5.03;1.53;;;;;;;;;;5065323;28;20228;-86
2024/03/16 00:04:43;;;;;;;1.30;1.20;;;;;;;;;;5055647;28;20236;-86
2024/03/16 00:07:12;;;;;;;11.27;1.60;;;;;;;;;;5052508;28;20277;-86
2024/03/16 00:09:39;;;;;;;6.60;1.90;;;;;;;;;;5062029;28;20236;-88
2024/03/16 00:12:05;;;;;;;1.50;1.40;;;;;;;;;;5049263;28;20208;-86
2024/03/16 00:14:34;;;;;;;0.20;0.20;;;;;;;;;;5048816;28;20232;-85
2024/03/16 00:17:01;;;;;;;5.63;1.47;;;;;;;;;;5064433;28;20247;-84
2024/03/16 00:19:27;;;;;;;2.87;1.10;;;;;;;;;;5064933;28;20228;-86
2024/03/16 00:21:53;;;;;;;0.30;0.30;;;;;;;;;;5056439;28;20236;-86
2024/03/16 00:24:20;;;;;;;0.20;0.20;;;;;;;;;;5066284;28;20283;-84
2024/03/16 00:26:47;;;;;;;0.37;0.37;;;;;;;;;;5064677;28;20327;-85
2024/03/16 00:29:14;;;;;;;0.30;0.30;;;;;;;;;;5055516;28;20258;-87
2024/03/16 00:31:40;;;;;;;4.23;0.63;;;;;;;;;;5064846;28;20236;-84
2024/03/16 00:34:06;;;;;;;8.80;1.17;;;;;;;;;;5064968;28;21052;-85
2024/03/16 00:36:32;;;;;;;3.40;0.97;;;;;;;;;;5049997;28;20251;-86
2024/03/16 00:38:58;;;;;;;3.87;1.17;;;;;;;;;;5063025;28;20220;-86
2024/03/16 00:41:24;;;;;;;0.33;0.33;;;;;;;;;;5065407;28;21102;-87
2024/03/16 00:43:51;;;;;;;1.57;0.83;;;;;;;;;;5065177;28;20286;-87
2024/03/16 00:46:17;;;;;;;2.63;1.20;;;;;;;;;;5082649;28;20232;-86
2024/03/16 00:48:43;;;;;;;3.00;0.60;;;;;;;;;;5081172;28;20715;-86
2024/03/16 00:51:13;;;;;;;0.27;0.27;;;;;;;;;;5053217;28;20201;-86
2024/03/16 00:53:41;;;;;;;7.40;0.80;;;;;;;;;;5078442;28;20252;-87
2024/03/16 00:56:11;;;;;;;0.23;0.23;;;;;;;;;;5064660;28;20245;-85
2024/03/16 00:58:37;;;;;;;0.20;0.20;;;;;;;;;;5083129;28;20248;-85
2024/03/16 01:01:03;;;;;;;0.20;0.20;;;;;;;;;;5064634;28;20235;-87
2024/03/16 01:03:29;;;;;;;0.40;0.40;;;;;;;;;;5042121;28;20212;-87
2024/03/16 01:05:56;;;;;;;0.40;0.40;;;;;;;;;;5041545;28;20228;-87
2024/03/16 01:08:22;;;;;;;0.87;0.50;;;;;;;;;;5044442;28;20354;-88
2024/03/16 01:10:54;;;;;;;0.50;0.50;;;;;;;;;;5044466;28;20239;-87
2024/03/16 01:13:20;;;;;;;1.70;0.87;;;;;;;;;;5060725;28;20240;-89
2024/03/16 01:15:47;;;;;;;0.20;0.10;;;;;;;;;;5062095;28;20211;-87
2024/03/16 01:18:13;;;;;;;0.10;0.10;;;;;;;;;;5080079;28;20657;-88
2024/03/16 01:20:43;;;;;;;0.20;0.20;;;;;;;;;;5049763;28;21097;-90
2024/03/16 01:23:09;;;;;;;0.10;0.10;;;;;;;;;;5080909;28;20228;-89
2024/03/16 01:25:36;;;;;;;0.23;0.23;;;;;;;;;;5040964;28;20264;-88
2024/03/16 01:28:04;;;;;;;0.20;0.20;;;;;;;;;;5049798;28;20236;-89
2024/03/16 01:30:30;;;;;;;0.20;0.20;;;;;;;;;;5063123;28;20256;-88
2024/03/16 01:32:57;;;;;;;0.20;0.20;;;;;;;;;;5082058;28;20598;-89
2024/03/16 01:35:23;;;;;;;0.10;0.10;;;;;;;;;;5082239;28;20264;-86
2024/03/16 01:37:51;;;;;;;0.20;0.20;;;;;;;;;;5081754;28;20233;-86
2024/03/16 01:40:24;;;;;;;0.27;0.27;;;;;;;;;;5082491;28;20244;-87
2024/03/16 01:42:51;;;;;;;0.30;0.30;;;;;;;;;;5062821;28;20209;-86
2024/03/16 01:45:17;;;;;;;0.10;0.10;;;;;;;;;;5066239;28;20217;-87
2024/03/16 01:47:44;;;;;;;0.23;0.23;;;;;;;;;;5081290;28;20241;-86
2024/03/16 01:50:12;;;;;;;0.93;0.93;;;;;;;;;;5065047;28;20245;-84
2024/03/16 01:52:39;;;;;;;0.20;0.20;;;;;;;;;;5049167;28;20470;-86
2024/03/16 01:55:05;;;;;;;1.13;1.13;;;;;;;;;;5056502;28;20245;-86
2024/03/16 01:57:31;;;;;;;0.10;0.10;;;;;;;;;;5065828;28;20217;-87
2024/03/16 01:59:57;;;;;;;0.30;0.30;;;;;;;;;;5081618;28;20744;-87
2024/03/16 02:02:31;;;;;;;2.30;2.10;;;;;;;;;;5047751;28;20240;-87
2024/03/16 02:04:57;;;;;;;0.20;0.20;;;;;;;;;;5057198;28;20266;-87
2024/03/16 02:07:24;;;;;;;0.20;0.20;;;;;;;;;;5064632;28;20240;-86
2024/03/16 02:09:50;;;;;;;2.30;0.20;;;;;;;;;;5086216;28;20335;-87
2024/03/16 02:12:16;;;;;;;0.20;0.20;;;;;;;;;;5069338;28;20258;-86
2024/03/16 02:14:42;;;;;;;0.20;0.20;;;;;;;;;;5068613;28;20240;-86
2024/03/16 02:17:10;;;;;;;0.10;0.10;;;;;;;;;;5068486;28;20228;-88
2024/03/16 02:19:40;;;;;;;0.20;0.20;;;;;;;;;;5068022;28;20256;-87
2024/03/16 02:22:06;;;;;;;0.20;0.20;;;;;;;;;;5084229;28;20243;-87
2024/03/16 02:24:32;;;;;;;0.10;0.10;;;;;;;;;;5085181;28;20212;-88
2024/03/16 02:26:59;;;;;;;0.10;0.10;;;;;;;;;;5086554;28;20790;-87
2024/03/16 02:29:32;;;;;;;0.20;0.20;;;;;;;;;;5050710;28;20255;-87
2024/03/16 02:31:58;;;;;;;0.20;0.20;;;;;;;;;;5044536;28;20236;-87
2024/03/16 02:34:26;;;;;;;0.10;0.10;;;;;;;;;;5066580;28;20331;-87
2024/03/16 02:36:52;;;;;;;0.83;0.83;;;;;;;;;;5066373;28;20570;-89
2024/03/16 02:39:20;;;;;;;0.10;0.10;;;;;;;;;;5068228;28;20288;-86
2024/03/16 02:41:47;;;;;;;0.87;0.60;;;;;;;;;;5068608;28;20704;-87
2024/03/16 02:44:13;;;;;;;0.20;0.20;;;;;;;;;;5084804;28;20734;-88
2024/03/16 02:46:39;;;;;;;0.10;0.10;;;;;;;;;;5077444;28;20232;-87
2024/03/16 02:49:05;;;;;;;0.50;0.50;;;;;;;;;;5084222;28;20251;-88
2024/03/16 02:51:31;;;;;;;0.20;0.20;;;;;;;;;;5067033;28;21238;-87
2024/03/16 02:53:58;;;;;;;0.10;0.10;;;;;;;;;;5065605;28;20228;-86
2024/03/16 02:56:24;;;;;;;0.10;0.10;;;;;;;;;;5081418;28;20232;-87
2024/03/16 02:58:50;;;;;;;0.27;0.27;;;;;;;;;;5067147;28;20675;-87
2024/03/16 03:01:16;;;;;;;0.10;0.10;;;;;;;;;;5067642;28;20241;-88
2024/03/16 03:03:43;;;;;;;0.53;0.53;;;;;;;;;;5066091;28;20620;-87
2024/03/16 03:06:09;;;;;;;0.10;0.10;;;;;;;;;;5084640;28;20208;-86
2024/03/16 03:08:35;;;;;;;0.20;0.20;;;;;;;;;;5049148;28;20244;-87
2024/03/16 03:11:03;;;;;;;4.53;4.10;;;;;;;;;;5067758;28;20232;-87
2024/03/16 03:13:30;;;;;;;0.40;0.40;;;;;;;;;;5066958;28;20236;-87
2024/03/16 03:15:56;;;;;;;0.30;0.30;;;;;;;;;;5084726;28;20263;-88
2024/03/16 03:18:25;;;;;;;2.47;1.07;;;;;;;;;;5059158;28;20663;-87
2024/03/16 03:20:52;;;;;;;0.20;0.20;;;;;;;;;;5064177;28;20241;-88
2024/03/16 03:23:18;;;;;;;0.10;0.10;;;;;;;;;;5062424;28;20250;-90
2024/03/16 03:25:46;;;;;;;0.20;0.20;;;;;;;;;;5062731;28;20235;-86
2024/03/16 03:28:12;;;;;;;0.33;0.33;;;;;;;;;;5061734;28;20281;-87
2024/03/16 03:30:38;;;;;;;3.10;0.50;;;;;;;;;;5062465;28;20227;-88
2024/03/16 03:33:05;;;;;;;2.73;0.60;;;;;;;;;;5062822;28;20703;-88
2024/03/16 03:35:31;;;;;;;7.63;0.50;;;;;;;;;;5062647;28;20228;-87
2024/03/16 03:37:57;;;;;;;0.20;0.20;;;;;;;;;;5062517;28;20228;-88
2024/03/16 03:40:24;;;;;;;0.87;0.87;;;;;;;;;;5046608;28;20240;-87
2024/03/16 03:42:55;;;;;;;0.20;0.20;;;;;;;;;;5078824;28;20567;-86
2024/03/16 03:45:37;;;;;;;0.20;0.20;;;;;;;;;;5046948;28;20209;-86
2024/03/16 03:48:35;;;;;;;1.00;1.00;;;;;;;;;;5047591;28;20750;-86
2024/03/16 03:50:55;;;;;;;0.27;0.27;;;;;;;;;;5064413;28;20240;-88
2024/03/16 03:53:22;;;;;;;0.30;0.30;;;;;;;;;;5064957;28;20233;-87
2024/03/16 03:55:48;;;;;;;0.30;0.30;;;;;;;;;;5065462;28;20224;-86
2024/03/16 03:58:14;;;;;;;0.10;0.10;;;;;;;;;;5049319;28;20264;-86
2024/03/16 04:00:44;;;;;;;0.10;0.10;;;;;;;;;;5065839;28;20209;-87
2024/03/16 04:03:10;;;;;;;5.23;0.53;;;;;;;;;;5079775;28;20204;-86
2024/03/16 04:05:37;;;;;;;0.20;0.20;;;;;;;;;;5061219;28;20225;-87
2024/03/16 04:08:06;;;;;;;1.47;1.37;;;;;;;;;;5064443;28;20298;-86
2024/03/16 04:10:36;;;;;;;2.93;0.97;;;;;;;;;;5064592;28;20240;-87
2024/03/16 04:13:03;;;;;;;0.50;0.50;;;;;;;;;;5048675;28;20232;-87
2024/03/16 04:15:30;;;;;;;0.30;0.30;;;;;;;;;;5048848;28;20215;-87
2024/03/16 04:17:56;;;;;;;0.13;0.13;;;;;;;;;;5065491;28;20287;-88
2024/03/16 04:20:22;;;;;;;0.10;0.10;;;;;;;;;;5082315;28;20233;-89
2024/03/16 04:22:49;;;;;;;0.10;0.10;;;;;;;;;;5062883;28;20260;-86
2024/03/16 04:25:17;;;;;;;0.50;0.50;;;;;;;;;;5081625;28;20243;-86
2024/03/16 04:27:44;;;;;;;0.20;0.20;;;;;;;;;;5080438;28;20601;-86
2024/03/16 04:30:13;;;;;;;0.10;0.10;;;;;;;;;;5081200;28;20243;-86
2024/03/16 04:32:39;;;;;;;0.20;0.20;;;;;;;;;;5044735;28;20232;-89
2024/03/16 04:35:06;;;;;;;2.53;0.53;;;;;;;;;;5080476;28;20236;-87
2024/03/16 04:37:33;;;;;;;0.40;0.40;;;;;;;;;;5060385;28;21095;-86
2024/03/16 04:39:59;;;;;;;0.20;0.20;;;;;;;;;;5061898;28;20321;-86
2024/03/16 04:42:25;;;;;;;1.50;0.20;;;;;;;;;;5080856;28;20213;-86
2024/03/16 04:44:51;;;;;;;0.20;0.20;;;;;;;;;;5054579;28;20239;-87
2024/03/16 04:47:18;;;;;;;2.90;2.77;;;;;;;;;;5060066;28;20369;-88
2024/03/16 04:49:44;;;;;;;0.10;0.10;;;;;;;;;;5044871;28;20232;-86
2024/03/16 04:52:13;;;;;;;0.20;0.20;;;;;;;;;;5049972;28;20232;-87
2024/03/16 04:54:40;;;;;;;0.20;0.20;;;;;;;;;;5061269;28;20375;-86
2024/03/16 04:57:06;;;;;;;0.20;0.20;;;;;;;;;;5065634;28;21171;-86
2024/03/16 04:59:32;;;;;;;0.20;0.20;;;;;;;;;;5066694;28;20236;-87
2024/03/16 05:01:58;;;;;;;1.10;1.10;;;;;;;;;;5050948;28;20277;-88
2024/03/16 05:04:24;;;;;;;0.30;0.30;;;;;;;;;;5067872;28;20318;-87
2024/03/16 05:06:50;;;;;;;0.30;0.30;;;;;;;;;;5045087;28;20937;-86
2024/03/16 05:09:17;;;;;;;0.20;0.20;;;;;;;;;;5052442;28;20246;-87
2024/03/16 05:11:44;;;;;;;0.30;0.30;;;;;;;;;;5084977;28;20314;-85
2024/03/16 05:14:10;;;;;;;0.30;0.30;;;;;;;;;;5081131;28;20229;-88
2024/03/16 05:16:37;;;;;;;0.20;0.20;;;;;;;;;;5063427;28;20278;-85
2024/03/16 05:19:04;;;;;;;0.10;0.10;;;;;;;;;;5051504;28;20311;-87
2024/03/16 05:21:31;;;;;;;0.30;0.30;;;;;;;;;;5085647;28;20204;-86
2024/03/16 05:23:57;;;;;;;0.10;0.10;;;;;;;;;;5086761;28;20315;-86
2024/03/16 05:26:24;;;;;;;0.20;0.20;;;;;;;;;;5086135;28;20704;-87
2024/03/16 05:28:50;;;;;;;0.37;0.37;;;;;;;;;;5068392;28;20241;-86
2024/03/16 05:31:16;;;;;;;0.20;0.20;;;;;;;;;;5051396;28;20233;-87
2024/03/16 05:33:43;;;;;;;0.20;0.20;;;;;;;;;;5068054;28;20209;-87
2024/03/16 05:36:15;;;;;;;0.20;0.20;;;;;;;;;;5069172;28;20232;-88
2024/03/16 05:38:45;;;;;;;0.20;0.20;;;;;;;;;;5050924;28;20239;-87
2024/03/16 05:41:12;;;;;;;0.30;0.30;;;;;;;;;;5066991;28;20619;-87
2024/03/16 05:43:38;;;;;;;0.23;0.23;;;;;;;;;;5050486;28;20273;-86
2024/03/16 05:46:05;;;;;;;0.20;0.20;;;;;;;;;;5067088;28;20236;-87
2024/03/16 05:48:31;;;;;;;2.47;0.40;;;;;;;;;;5085735;28;20242;-86
2024/03/16 05:50:57;;;;;;;0.17;0.17;;;;;;;;;;5084880;28;20229;-86
2024/03/16 05:53:23;;;;;;;0.30;0.30;;;;;;;;;;5084055;28;20314;-87
2024/03/16 05:55:50;;;;;;;0.20;0.20;;;;;;;;;;5049698;28;20227;-87
2024/03/16 05:58:16;;;;;;;0.20;0.20;;;;;;;;;;5066514;28;20528;-86
2024/03/16 06:00:43;;;;;;;0.20;0.20;;;;;;;;;;5066593;28;20228;-86
2024/03/16 06:03:09;;;;;;;0.20;0.20;;;;;;;;;;5050914;28;20208;-85
2024/03/16 06:05:38;;;;;;;0.20;0.20;;;;;;;;;;5064645;28;20282;-86
2024/03/16 06:08:04;;;;;;;2.03;1.90;;;;;;;;;;5036383;28;20249;-85
2024/03/16 06:10:34;;;;;;;1.83;1.70;;;;;;;;;;5079035;28;20241;-86
2024/03/16 06:13:01;;;;;;;0.27;0.27;;;;;;;;;;5080666;28;20237;-85
2024/03/16 06:15:27;;;;;;;0.20;0.20;;;;;;;;;;5047910;28;20688;-86
2024/03/16 06:17:53;;;;;;;2.07;0.67;;;;;;;;;;5061083;28;20592;-85
2024/03/16 06:20:19;;;;;;;0.20;0.20;;;;;;;;;;5063022;28;20224;-86
2024/03/16 06:22:47;;;;;;;0.40;0.40;;;;;;;;;;5070294;28;20235;-84
2024/03/16 06:25:14;;;;;;;0.20;0.20;;;;;;;;;;5078175;28;20294;-84
2024/03/16 06:28:05;;;;;;;0.60;0.60;;;;;;;;;;5078443;28;20216;-88
2024/03/16 06:30:31;;;;;;;0.30;0.30;;;;;;;;;;5062780;28;20228;-90
2024/03/16 06:33:08;;;;;;;0.50;0.50;;;;;;;;;;5080250;28;20280;-85
2024/03/16 06:35:36;;;;;;;0.30;0.17;;;;;;;;;;5062336;28;20250;-86
2024/03/16 06:38:02;;;;;;;2.23;0.30;;;;;;;;;;5061982;28;20237;-87
2024/03/16 06:40:28;;;;;;;0.30;0.30;;;;;;;;;;5062486;28;20316;-87
2024/03/16 06:42:54;;;;;;;0.13;0.13;;;;;;;;;;5046165;28;20240;-86
2024/03/16 06:45:20;;;;;;;0.30;0.30;;;;;;;;;;5079981;28;20205;-88
2024/03/16 06:47:46;;;;;;;0.30;0.30;;;;;;;;;;5062003;28;20252;-85
2024/03/16 06:50:13;;;;;;;0.20;0.20;;;;;;;;;;5078777;28;21080;-87
2024/03/16 06:52:39;;;;;;;0.20;0.20;;;;;;;;;;5079213;28;20228;-86
2024/03/16 06:55:06;;;;;;;0.30;0.30;;;;;;;;;;5062325;28;20279;-85
2024/03/16 06:57:33;;;;;;;0.20;0.20;;;;;;;;;;5063998;28;21034;-87
2024/03/16 06:59:59;;;;;;;0.20;0.20;;;;;;;;;;5044369;28;20251;-85
2024/03/16 07:02:25;;;;;;;7.93;0.63;;;;;;;;;;5059971;28;20770;-87
2024/03/16 07:04:52;;;;;;;0.40;0.40;;;;;;;;;;5061334;28;20236;-85
2024/03/16 07:07:18;;;;;;;0.27;0.27;;;;;;;;;;5061749;28;20221;-83
2024/03/16 07:09:44;;;;;;;0.37;0.37;;;;;;;;;;5078152;28;20229;-86
2024/03/16 07:12:10;;;;;;;0.20;0.20;;;;;;;;;;5045970;28;20205;-86
2024/03/16 07:14:36;;;;;;;0.20;0.20;;;;;;;;;;5064505;28;20716;-84
2024/03/16 07:17:02;;;;;;;0.10;0.10;;;;;;;;;;5060567;28;20359;-86
2024/03/16 07:19:28;;;;;;;1.47;0.57;;;;;;;;;;5078751;28;20295;-86
2024/03/16 07:21:55;;;;;;;0.30;0.30;;;;;;;;;;5078694;28;20213;-86
2024/03/16 07:24:21;;;;;;;0.30;0.30;;;;;;;;;;5046878;28;20237;-86
2024/03/16 07:26:48;;;;;;;0.10;0.10;;;;;;;;;;5061972;28;20225;-85
2024/03/16 07:29:14;;;;;;;0.20;0.20;;;;;;;;;;5053807;28;20653;-85
2024/03/16 07:31:40;;;;;;;2.13;0.40;;;;;;;;;;5062428;28;20229;-85
2024/03/16 07:34:06;;;;;;;0.20;0.20;;;;;;;;;;5062628;28;20286;-87
2024/03/16 07:36:33;;;;;;;0.30;0.30;;;;;;;;;;5062624;28;20209;-88
2024/03/16 07:38:59;;;;;;;0.10;0.10;;;;;;;;;;5062066;28;20237;-88
2024/03/16 07:41:25;;;;;;;0.20;0.20;;;;;;;;;;5062102;28;20332;-87
2024/03/16 07:43:52;;;;;;;0.50;0.47;;;;;;;;;;5078133;28;20233;-87
2024/03/16 07:46:21;;;;;;;0.10;0.10;;;;;;;;;;5079163;28;20251;-88
2024/03/16 07:48:49;;;;;;;0.20;0.20;;;;;;;;;;5046443;28;20252;-88
2024/03/16 07:51:16;;;;;;;0.20;0.20;;;;;;;;;;5078327;28;20763;-89
2024/03/16 07:53:43;;;;;;;0.20;0.20;;;;;;;;;;5044838;28;20233;-89
2024/03/16 07:56:09;;;;;;;0.10;0.10;;;;;;;;;;5043281;28;20229;-88
2024/03/16 07:58:39;;;;;;;0.13;0.13;;;;;;;;;;5077186;28;20244;-86
2024/03/16 08:01:05;;;;;;;11.97;0.73;;;;;;;;;;5064322;28;20323;-87
2024/03/16 08:03:33;;;;;;;0.37;0.33;;;;;;;;;;5038556;28;20201;-87
2024/03/16 08:06:04;;;;;;;0.20;0.20;;;;;;;;;;5063546;28;20237;-88
2024/03/16 08:08:30;;;;;;;0.20;0.20;;;;;;;;;;5078521;28;20237;-89
2024/03/16 08:10:56;;;;;;;0.23;0.23;;;;;;;;;;5063696;28;20225;-88
2024/03/16 08:13:22;;;;;;;0.20;0.20;;;;;;;;;;5045378;28;20689;-88
2024/03/16 08:15:49;;;;;;;0.43;0.43;;;;;;;;;;5078612;28;20789;-88
2024/03/16 08:18:15;;;;;;;0.40;0.40;;;;;;;;;;5079022;28;20213;-88
2024/03/16 08:20:43;;;;;;;0.20;0.20;;;;;;;;;;5078199;28;20217;-88
2024/03/16 08:23:09;;;;;;;0.20;0.20;;;;;;;;;;5077111;28;20247;-86
2024/03/16 08:25:38;;;;;;;1.33;1.23;;;;;;;;;;5061171;28;20241;-86
2024/03/16 08:28:04;;;;;;;0.10;0.10;;;;;;;;;;5044292;28;20423;-86
2024/03/16 08:30:30;;;;;;;0.20;0.20;;;;;;;;;;5060653;28;20232;-88
2024/03/16 08:32:57;;;;;;;8.60;0.50;;;;;;;;;;5044356;28;20224;-87
2024/03/16 08:35:23;;;;;;;0.10;0.10;;;;;;;;;;5061349;28;20263;-87
2024/03/16 08:37:49;;;;;;;0.23;0.23;;;;;;;;;;5043180;28;20237;-88
2024/03/16 08:40:16;;;;;;;0.20;0.20;;;;;;;;;;5042679;28;20228;-88
2024/03/16 08:42:42;;;;;;;0.20;0.20;;;;;;;;;;5077608;28;21427;-87
2024/03/16 08:45:09;;;;;;;3.07;1.07;;;;;;;;;;5078111;28;20232;-87
2024/03/16 08:47:36;;;;;;;0.40;0.40;;;;;;;;;;5041563;28;20294;-87
2024/03/16 08:50:04;;;;;;;0.20;0.20;;;;;;;;;;5060235;28;20280;-87
2024/03/16 08:52:31;;;;;;;0.30;0.30;;;;;;;;;;5077659;28;20602;-87
2024/03/16 08:54:57;;;;;;;0.40;0.40;;;;;;;;;;5060315;28;20313;-86
2024/03/16 08:57:23;;;;;;;0.20;0.20;;;;;;;;;;5077066;28;20208;-86
2024/03/16 08:59:51;;;;;;;2.63;0.73;;;;;;;;;;5052090;28;20229;-86
2024/03/16 09:02:20;;;;;;;0.20;0.20;;;;;;;;;;5059909;28;20233;-85
2024/03/16 09:04:47;;;;;;;0.20;0.20;;;;;;;;;;5059172;28;20229;-84
2024/03/16 09:07:13;;;;;;;1.07;0.70;;;;;;;;;;5076263;28;20257;-85
2024/03/16 09:09:41;;;;;;;3.80;0.83;;;;;;;;;;5069999;28;20237;-85
2024/03/16 09:12:09;;;;;;;0.20;0.20;;;;;;;;;;5062048;28;20206;-85
2024/03/16 09:14:35;;;;;;;0.53;0.53;;;;;;;;;;5077313;28;20228;-86
2024/03/16 09:17:02;;;;;;;0.10;0.10;;;;;;;;;;5044202;28;20221;-85
2024/03/16 09:19:28;;;;;;;0.30;0.30;;;;;;;;;;5075875;28;20720;-85
2024/03/16 09:21:54;;;;;;;0.10;0.10;;;;;;;;;;5076784;28;20212;-86
2024/03/16 09:24:20;;;;;;;0.20;0.20;;;;;;;;;;5062949;28;21013;-85
2024/03/16 09:26:46;;;;;;;0.20;0.20;;;;;;;;;;5043487;28;20237;-85
2024/03/16 09:29:12;;;;;;;0.30;0.30;;;;;;;;;;5076606;28;20570;-85
2024/03/16 09:31:39;;;;;;;2.30;1.07;;;;;;;;;;5043200;28;20746;-85
2024/03/16 09:34:06;;;;;;;0.20;0.20;;;;;;;;;;5043550;28;20267;-85
2024/03/16 09:36:32;;;;;;;2.30;2.20;;;;;;;;;;5061233;28;20745;-85
2024/03/16 09:38:58;;;;;;;0.13;0.13;;;;;;;;;;5076919;28;20249;-85
2024/03/16 09:41:25;;;;;;;0.20;0.20;;;;;;;;;;5063110;28;20743;-85
2024/03/16 09:43:53;;;;;;;0.20;0.20;;;;;;;;;;5045763;28;20236;-86
2024/03/16 09:46:20;;;;;;;4.37;0.40;;;;;;;;;;5045801;28;20233;-85
2024/03/16 09:48:46;;;;;;;1.97;1.87;;;;;;;;;;5080032;28;20214;-85
2024/03/16 09:51:16;;;;;;;0.10;0.10;;;;;;;;;;5045813;28;20278;-86
2024/03/16 09:53:43;;;;;;;0.20;0.20;;;;;;;;;;5054816;28;21080;-85
2024/03/16 09:56:13;;;;;;;0.13;0.13;;;;;;;;;;5063436;28;20245;-86
2024/03/16 09:58:42;;;;;;;0.20;0.20;;;;;;;;;;5079993;28;20237;-84
2024/03/16 10:01:09;;;;;;;1.70;0.50;;;;;;;;;;5064374;28;20237;-85
2024/03/16 10:03:35;;;;;;;1.87;0.53;;;;;;;;;;5080384;28;20205;-84
2024/03/16 10:06:04;;;;;;;0.20;0.20;;;;;;;;;;5064539;28;20558;-85
2024/03/16 10:08:34;;;;;;;0.97;0.37;;;;;;;;;;5068645;28;20708;-85
2024/03/16 10:11:13;;;;;;;0.30;0.30;;;;;;;;;;5049552;28;20232;-86
2024/03/16 10:13:39;;;;;;;7.13;0.50;;;;;;;;;;5059185;28;20329;-86
2024/03/16 10:16:11;;;;;;;2.53;0.30;;;;;;;;;;5083329;28;20833;-90
2024/03/16 10:18:38;;;;;;;0.40;0.40;;;;;;;;;;5071825;28;20714;-84
2024/03/16 10:21:04;;;;;;;0.37;0.37;;;;;;;;;;5060409;28;20189;-85
2024/03/16 10:23:31;;;;;;;0.20;0.20;;;;;;;;;;5065714;28;20220;-85
2024/03/16 10:25:57;;;;;;;0.20;0.20;;;;;;;;;;5039116;28;20687;-85
2024/03/16 10:28:25;;;;;;;0.20;0.20;;;;;;;;;;5083707;28;20228;-83
2024/03/16 10:30:52;;;;;;;1.03;0.40;;;;;;;;;;5066130;28;20243;-84
2024/03/16 10:33:19;;;;;;;0.10;0.10;;;;;;;;;;5065443;28;20212;-85
2024/03/16 10:35:46;;;;;;;0.27;0.27;;;;;;;;;;5065823;28;20264;-86
2024/03/16 10:38:13;;;;;;;0.30;0.30;;;;;;;;;;5063572;28;20244;-84
2024/03/16 10:40:42;;;;;;;0.30;0.30;;;;;;;;;;5082235;28;20233;-87
2024/03/16 10:43:17;;;;;;;3.13;0.23;;;;;;;;;;5050036;28;20235;-85
2024/03/16 10:45:47;;;;;;;0.50;0.50;;;;;;;;;;5054354;28;20208;-84
2024/03/16 10:48:13;;;;;;;0.10;0.10;;;;;;;;;;5083334;28;20193;-85
2024/03/16 10:50:43;;;;;;;0.37;0.37;;;;;;;;;;5060682;28;20596;-85
2024/03/16 10:53:09;;;;;;;0.97;0.57;;;;;;;;;;5081113;28;20309;-85
2024/03/16 10:55:39;;;;;;;2.97;1.03;;;;;;;;;;5064930;28;20240;-84
2024/03/16 10:58:06;;;;;;;0.20;0.20;;;;;;;;;;5082835;28;20240;-84
2024/03/16 11:00:35;;;;;;;0.40;0.40;;;;;;;;;;5083994;28;20265;-84
2024/03/16 11:03:09;;;;;;;0.20;0.20;;;;;;;;;;5048394;28;20630;-85
2024/03/16 11:05:48;;;;;;;0.20;0.20;;;;;;;;;;5083270;28;20228;-86
2024/03/16 11:08:14;;;;;;;0.40;0.30;;;;;;;;;;5064517;28;20251;-85
2024/03/16 11:10:52;;;;;;;0.20;0.20;;;;;;;;;;5065652;28;20298;-85
2024/03/16 11:13:20;;;;;;;0.20;0.20;;;;;;;;;;5055591;28;20537;-85
2024/03/16 11:15:46;;;;;;;0.20;0.20;;;;;;;;;;5078857;28;20196;-83
2024/03/16 11:18:19;;;;;;;0.20;0.20;;;;;;;;;;5065387;28;20204;-83
2024/03/16 11:20:50;;;;;;;0.17;0.17;;;;;;;;;;5056821;28;20251;-83
2024/03/16 11:23:30;;;;;;;0.10;0.10;;;;;;;;;;5047824;28;20235;-83
2024/03/16 11:26:01;;;;;;;0.43;0.43;;;;;;;;;;5062586;28;20782;-83
2024/03/16 11:28:43;;;;;;;15.27;1.63;;;;;;;;;;5081612;28;20719;-83
2024/03/16 11:31:36;;;;;;;0.20;0.20;;;;;;;;;;5069391;28;20309;-83
2024/03/16 11:34:03;;;;;;;0.50;0.50;;;;;;;;;;5053265;28;20228;-86
2024/03/16 11:36:29;;;;;;;0.10;0.10;;;;;;;;;;5065602;28;20961;-83
2024/03/16 11:38:55;;;;;;;0.20;0.20;;;;;;;;;;5046929;28;20327;-84
2024/03/16 11:41:22;;;;;;;5.93;1.30;;;;;;;;;;5055033;28;20857;-84
2024/03/16 11:43:48;;;;;;;8.47;0.50;;;;;;;;;;5064186;28;20714;-85
2024/03/16 11:46:19;;;;;;;0.30;0.30;;;;;;;;;;5081529;28;20312;-84
2024/03/16 11:48:45;;;;;;;0.10;0.10;;;;;;;;;;5081712;28;20228;-85
2024/03/16 11:51:13;;;;;;;0.20;0.20;;;;;;;;;;5064423;28;20305;-83
2024/03/16 11:53:39;;;;;;;0.57;0.23;;;;;;;;;;5062373;28;20232;-84
2024/03/16 11:56:07;;;;;;;0.30;0.30;;;;;;;;;;5061693;28;20233;-83
2024/03/16 11:58:33;;;;;;;0.47;0.47;;;;;;;;;;5081078;28;20232;-83
2024/03/16 12:01:00;;;;;;;0.50;0.40;;;;;;;;;;5080563;28;20235;-84
2024/03/16 12:03:27;;;;;;;3.83;0.37;;;;;;;;;;5081720;28;20672;-84
2024/03/16 12:05:53;;;;;;;0.10;0.10;;;;;;;;;;5062914;28;20263;-84
2024/03/16 12:08:20;;;;;;;11.83;0.60;;;;;;;;;;5041343;28;20327;-85
2024/03/16 12:10:46;;;;;;;1.57;0.20;;;;;;;;;;5046857;28;20228;-84
2024/03/16 12:13:13;;;;;;;0.17;0.17;;;;;;;;;;5063888;28;20244;-85
2024/03/16 12:15:39;;;;;;;1.90;1.80;;;;;;;;;;5063751;28;20204;-84
2024/03/16 12:18:05;;;;;;;0.20;0.20;;;;;;;;;;5046785;28;20298;-86
2024/03/16 12:20:34;;;;;;;1.17;0.60;;;;;;;;;;5051892;28;20779;-85
2024/03/16 12:23:00;;;;;;;0.13;0.13;;;;;;;;;;5063905;28;20232;-85
2024/03/16 12:25:27;;;;;;;0.13;0.13;;;;;;;;;;5081588;28;20904;-84
2024/03/16 12:27:54;;;;;;;0.20;0.20;;;;;;;;;;5080238;28;20200;-85
2024/03/16 12:30:21;;;;;;;1.23;0.93;;;;;;;;;;5063905;28;20292;-85
2024/03/16 12:32:48;;;;;;;0.20;0.20;;;;;;;;;;5047775;28;20220;-84
2024/03/16 12:35:14;;;;;;;0.30;0.30;;;;;;;;;;5064301;28;20276;-85
2024/03/16 12:37:42;;;;;;;1.83;0.43;;;;;;;;;;5063286;28;20333;-86
2024/03/16 12:40:08;;;;;;;0.20;0.20;;;;;;;;;;5081234;28;20232;-86
2024/03/16 12:42:34;;;;;;;1.13;1.13;;;;;;;;;;5049417;28;20280;-87
2024/03/16 12:45:00;;;;;;;0.97;0.13;;;;;;;;;;5081686;28;20767;-85
2024/03/16 12:47:27;;;;;;;1.13;0.97;;;;;;;;;;5045701;28;20695;-85
2024/03/16 12:49:56;;;;;;;1.33;1.23;;;;;;;;;;5080673;28;20370;-85
2024/03/16 12:52:25;;;;;;;0.63;0.63;;;;;;;;;;5080112;28;20286;-84
2024/03/16 12:54:51;;;;;;;1.30;1.27;;;;;;;;;;5062283;28;20240;-82
2024/03/16 12:57:17;;;;;;;1.00;0.43;;;;;;;;;;5081635;28;20255;-84
2024/03/16 12:59:43;;;;;;;0.40;0.40;;;;;;;;;;5062167;28;20220;-82
2024/03/16 13:02:10;;;;;;;0.20;0.20;;;;;;;;;;5070497;28;20228;-84
2024/03/16 13:04:39;;;;;;;0.13;0.13;;;;;;;;;;5045145;28;20240;-83
2024/03/16 13:07:05;;;;;;;0.20;0.20;;;;;;;;;;5061881;28;20240;-82
2024/03/16 13:09:32;;;;;;;0.37;0.37;;;;;;;;;;5062814;28;20236;-82
2024/03/16 13:11:59;;;;;;;0.37;0.23;;;;;;;;;;5078309;28;20271;-83
2024/03/16 13:14:25;;;;;;;0.63;0.63;;;;;;;;;;5062641;28;20236;-83
2024/03/16 13:16:51;;;;;;;4.73;0.63;;;;;;;;;;5066242;28;20240;-82
2024/03/16 13:19:17;;;;;;;13.60;0.37;;;;;;;;;;5083546;28;20224;-82
2024/03/16 13:21:46;;;;;;;2.67;1.37;;;;;;;;;;5085348;28;20204;-83
2024/03/16 13:24:13;;;;;;;2.37;0.50;;;;;;;;;;5076775;28;20215;-83
2024/03/16 13:26:40;;;;;;;1.27;0.43;;;;;;;;;;5066291;28;20966;-84
2024/03/16 13:29:07;;;;;;;0.47;0.47;;;;;;;;;;5083033;28;21352;-84
2024/03/16 13:31:33;;;;;;;0.20;0.20;;;;;;;;;;5081386;28;20243;-84
2024/03/16 13:34:00;;;;;;;0.27;0.27;;;;;;;;;;5064146;28;20263;-84
2024/03/16 13:36:26;;;;;;;0.30;0.30;;;;;;;;;;5048612;28;20287;-84
2024/03/16 13:38:53;;;;;;;2.90;0.43;;;;;;;;;;5065374;28;20220;-84
2024/03/16 13:41:19;;;;;;;0.10;0.10;;;;;;;;;;5064215;28;20289;-83
2024/03/16 13:43:46;;;;;;;2.13;1.63;;;;;;;;;;5083464;28;20256;-84
2024/03/16 13:46:18;;;;;;;1.07;0.70;;;;;;;;;;5056295;28;20232;-85
2024/03/16 13:48:56;;;;;;;0.10;0.10;;;;;;;;;;5082734;28;20366;-83
2024/03/16 13:51:26;;;;;;;0.63;0.50;;;;;;;;;;5066077;28;20258;-84
2024/03/16 13:53:59;;;;;;;0.20;0.20;;;;;;;;;;5065838;28;20275;-84
2024/03/16 13:56:25;;;;;;;2.30;0.47;;;;;;;;;;5056770;28;20257;-84
2024/03/16 13:58:52;;;;;;;0.37;0.37;;;;;;;;;;5066813;28;20256;-83
2024/03/16 14:01:21;;;;;;;0.10;0.10;;;;;;;;;;5065884;28;20236;-84
2024/03/16 14:03:50;;;;;;;0.07;0.07;;;;;;;;;;5064640;28;20236;-84
2024/03/16 14:06:17;;;;;;;0.20;0.20;;;;;;;;;;5054463;28;20312;-85
2024/03/16 14:08:43;;;;;;;0.50;0.50;;;;;;;;;;5067009;28;20267;-85
2024/03/16 14:11:10;;;;;;;0.10;0.10;;;;;;;;;;5082025;28;20240;-86
2024/03/16 14:13:36;;;;;;;0.70;0.33;;;;;;;;;;5082559;28;20311;-87
2024/03/16 14:16:06;;;;;;;10.50;2.93;;;;;;;;;;5066770;28;20232;-85
2024/03/16 14:18:36;;;;;;;5.83;1.00;;;;;;;;;;5085553;28;20213;-84
2024/03/16 14:21:03;;;;;;;0.77;0.77;;;;;;;;;;5063487;28;20274;-85
2024/03/16 14:23:30;;;;;;;2.97;0.97;;;;;;;;;;5065705;28;20232;-84
2024/03/16 14:25:56;;;;;;;2.37;0.60;;;;;;;;;;5081578;28;20328;-84
2024/03/16 14:28:22;;;;;;;0.20;0.20;;;;;;;;;;5065700;28;20247;-84
2024/03/16 14:30:49;;;;;;;0.50;0.50;;;;;;;;;;5084541;28;20228;-86
2024/03/16 14:33:21;;;;;;;0.97;0.97;;;;;;;;;;5066413;28;20219;-84
2024/03/16 14:35:51;;;;;;;0.20;0.20;;;;;;;;;;5084481;28;20228;-86
2024/03/16 14:38:17;;;;;;;0.20;0.20;;;;;;;;;;5081142;28;20260;-85
2024/03/16 14:40:43;;;;;;;1.23;0.83;;;;;;;;;;5054275;28;20268;-87
2024/03/16 14:43:10;;;;;;;0.20;0.20;;;;;;;;;;5039377;28;20252;-87
2024/03/16 14:45:36;;;;;;;0.10;0.10;;;;;;;;;;5076601;28;20236;-87